createdAt,value
2023-12-18T00:00:36.069Z,10.38
2023-12-18T00:03:02.758Z,10.00
2023-12-18T00:05:29.434Z,11.55
2023-12-18T00:07:55.953Z,9.73
2023-12-18T00:10:23.746Z,10.13
2023-12-18T00:12:50.222Z,11.15
2023-12-18T00:15:16.828Z,10.80
2023-12-18T00:17:43.521Z,10.82
2023-12-18T00:20:10.830Z,10.80
2023-12-18T00:22:37.308Z,9.85
2023-12-18T00:25:04.014Z,9.75
2023-12-18T00:27:30.575Z,10.35
2023-12-18T00:29:57.243Z,10.30
2023-12-18T00:32:23.787Z,9.52
2023-12-18T00:34:50.342Z,9.45
2023-12-18T00:37:16.950Z,9.50
2023-12-18T00:39:43.478Z,9.65
2023-12-18T00:42:10.092Z,10.27
2023-12-18T00:44:36.700Z,8.88
2023-12-18T00:47:04.139Z,9.55
2023-12-18T00:49:33.816Z,8.15
2023-12-18T00:52:01.144Z,9.38
2023-12-18T00:54:27.804Z,8.52
2023-12-18T00:56:54.550Z,8.38
2023-12-18T00:59:21.337Z,8.32
2023-12-18T01:01:47.968Z,9.20
2023-12-18T01:04:14.745Z,10.00
2023-12-18T01:06:41.406Z,8.18
2023-12-18T01:09:09.987Z,8.13
2023-12-18T01:11:36.912Z,7.88
2023-12-18T01:14:03.604Z,7.63
2023-12-18T01:16:30.480Z,8.18
2023-12-18T01:18:57.185Z,7.40
2023-12-18T01:21:23.945Z,7.22
2023-12-18T01:23:50.557Z,7.75
2023-12-18T01:26:17.126Z,7.43
2023-12-18T01:28:44.408Z,7.45
2023-12-18T01:31:23.859Z,7.60
2023-12-18T01:33:53.438Z,7.60
2023-12-18T01:36:20.267Z,8.50
2023-12-18T01:38:46.942Z,7.97
2023-12-18T01:41:13.754Z,8.93
2023-12-18T01:43:40.261Z,8.63
2023-12-18T01:46:06.971Z,7.85
2023-12-18T01:48:34.804Z,8.30
2023-12-18T01:51:02.557Z,7.43
2023-12-18T01:53:35.233Z,8.43
2023-12-18T01:56:02.912Z,8.00
2023-12-18T01:58:32.779Z,9.52
2023-12-18T02:01:00.636Z,9.50
2023-12-18T02:03:29.831Z,9.15
2023-12-18T02:05:57.811Z,8.68
2023-12-18T02:08:25.592Z,8.68
2023-12-18T02:10:52.552Z,9.07
2023-12-18T02:13:19.159Z,8.52
2023-12-18T02:15:45.735Z,9.18
2023-12-18T02:18:12.395Z,10.30
2023-12-18T02:20:42.365Z,9.48
2023-12-18T02:23:09.567Z,8.90
2023-12-18T02:25:36.041Z,9.18
2023-12-18T02:28:05.797Z,9.32
2023-12-18T02:30:33.334Z,9.45
2023-12-18T02:32:59.997Z,9.75
2023-12-18T02:35:27.184Z,9.85
2023-12-18T02:37:53.786Z,9.68
2023-12-18T02:40:21.450Z,10.38
2023-12-18T02:42:47.964Z,10.35
2023-12-18T02:45:14.593Z,10.50
2023-12-18T02:47:41.474Z,10.40
2023-12-18T02:50:08.621Z,8.93
2023-12-18T02:52:35.206Z,10.23
2023-12-18T02:55:01.882Z,10.07
2023-12-18T02:57:29.005Z,11.07
2023-12-18T02:59:55.535Z,10.25
2023-12-18T03:02:22.433Z,10.15
2023-12-18T03:04:49.001Z,10.70
2023-12-18T03:07:15.547Z,9.13
2023-12-18T03:09:42.046Z,10.38
2023-12-18T03:12:08.724Z,10.05
2023-12-18T03:14:35.334Z,9.48
2023-12-18T03:17:01.901Z,9.55
2023-12-18T03:19:28.632Z,10.82
2023-12-18T03:21:55.406Z,10.32
2023-12-18T03:24:23.816Z,10.55
2023-12-18T03:26:50.625Z,9.50
2023-12-18T03:29:17.190Z,9.90
2023-12-18T03:31:43.683Z,10.35
2023-12-18T03:34:10.291Z,10.15
2023-12-18T03:36:36.922Z,10.60
2023-12-18T03:39:03.526Z,10.50
2023-12-18T03:41:30.146Z,9.55
2023-12-18T03:43:56.638Z,10.70
2023-12-18T03:46:23.162Z,9.38
2023-12-18T03:48:49.696Z,10.35
2023-12-18T03:51:16.457Z,10.13
2023-12-18T03:53:42.973Z,9.68
2023-12-18T03:56:09.439Z,10.68
2023-12-18T03:58:37.859Z,10.52
2023-12-18T04:01:04.859Z,9.77
2023-12-18T04:03:34.481Z,9.88
2023-12-18T04:06:01.474Z,10.02
2023-12-18T04:08:28.094Z,9.60
2023-12-18T04:10:54.603Z,10.15
2023-12-18T04:13:21.179Z,9.63
2023-12-18T04:15:47.696Z,8.43
2023-12-18T04:18:14.385Z,8.88
2023-12-18T04:20:41.002Z,8.63
2023-12-18T04:23:07.488Z,9.00
2023-12-18T04:25:35.279Z,8.48
2023-12-18T04:28:01.721Z,8.05
2023-12-18T04:30:28.381Z,9.20
2023-12-18T04:32:54.931Z,8.95
2023-12-18T04:35:21.514Z,9.38
2023-12-18T04:37:48.164Z,8.65
2023-12-18T04:40:15.154Z,7.78
2023-12-18T04:42:41.922Z,8.32
2023-12-18T04:45:09.262Z,7.15
2023-12-18T04:47:35.882Z,8.90
2023-12-18T04:50:02.421Z,9.50
2023-12-18T04:52:29.000Z,9.73
2023-12-18T04:54:55.582Z,9.52
2023-12-18T04:57:22.123Z,9.55
2023-12-18T04:59:48.748Z,10.13
2023-12-18T05:02:15.246Z,9.13
2023-12-18T05:04:41.958Z,9.10
2023-12-18T05:07:09.416Z,9.27
2023-12-18T05:09:36.151Z,9.02
2023-12-18T05:12:02.734Z,8.40
2023-12-18T05:14:29.226Z,7.72
2023-12-18T05:16:55.694Z,7.93
2023-12-18T05:19:22.467Z,8.60
2023-12-18T05:21:49.116Z,9.50
2023-12-18T05:24:15.795Z,9.02
2023-12-18T05:26:42.444Z,9.20
2023-12-18T05:29:08.899Z,8.98
2023-12-18T05:31:35.582Z,9.40
2023-12-18T05:34:02.277Z,9.38
2023-12-18T05:36:29.011Z,9.48
2023-12-18T05:38:55.546Z,9.20
2023-12-18T05:41:22.094Z,9.05
2023-12-18T05:43:48.645Z,9.50
2023-12-18T05:46:15.426Z,9.75
2023-12-18T05:48:42.042Z,10.10
2023-12-18T05:51:19.331Z,9.45
2023-12-18T05:53:45.903Z,10.00
2023-12-18T05:56:12.523Z,9.25
2023-12-18T05:58:39.236Z,10.20
2023-12-18T06:01:06.170Z,9.18
2023-12-18T06:03:33.196Z,9.50
2023-12-18T06:05:59.899Z,10.70
2023-12-18T06:08:26.418Z,9.68
2023-12-18T06:10:52.924Z,10.13
2023-12-18T06:13:19.521Z,10.05
2023-12-18T06:15:46.055Z,10.68
2023-12-18T06:18:12.901Z,11.13
2023-12-18T06:20:39.476Z,9.73
2023-12-18T06:23:05.937Z,9.25
2023-12-18T06:25:32.472Z,10.70
2023-12-18T06:27:59.545Z,10.88
2023-12-18T06:30:26.183Z,11.25
2023-12-18T06:32:52.805Z,10.10
2023-12-18T06:35:19.479Z,11.20
2023-12-18T06:37:46.278Z,10.02
2023-12-18T06:40:13.077Z,10.18
2023-12-18T06:42:40.294Z,10.50
2023-12-18T06:45:07.633Z,10.68
2023-12-18T06:47:34.283Z,8.93
2023-12-18T06:50:00.872Z,8.35
2023-12-18T06:52:27.364Z,7.63
2023-12-18T06:54:53.972Z,9.75
2023-12-18T06:57:20.494Z,9.60
2023-12-18T06:59:46.980Z,9.73
2023-12-18T07:02:13.447Z,9.43
2023-12-18T07:04:39.912Z,9.75
2023-12-18T07:07:06.496Z,10.10
2023-12-18T07:09:33.121Z,9.43
2023-12-18T07:11:59.717Z,10.45
2023-12-18T07:14:26.211Z,11.45
2023-12-18T07:16:54.234Z,10.90
2023-12-18T07:19:20.941Z,10.63
2023-12-18T07:21:47.563Z,11.35
2023-12-18T07:24:14.127Z,9.60
2023-12-18T07:26:40.627Z,10.63
2023-12-18T07:29:07.124Z,11.07
2023-12-18T07:31:33.779Z,11.50
2023-12-18T07:34:00.451Z,9.80
2023-12-18T07:36:27.058Z,11.10
2023-12-18T07:38:53.583Z,11.68
2023-12-18T07:41:20.161Z,10.48
2023-12-18T07:43:46.832Z,9.98
2023-12-18T07:46:20.500Z,10.35
2023-12-18T07:48:49.481Z,10.90
2023-12-18T07:51:16.728Z,10.50
2023-12-18T07:53:43.391Z,9.85
2023-12-18T07:56:09.908Z,10.88
2023-12-18T07:58:36.513Z,12.05
2023-12-18T08:01:05.242Z,10.45
2023-12-18T08:03:32.092Z,11.30
2023-12-18T08:05:58.733Z,11.60
2023-12-18T08:08:25.204Z,10.73
2023-12-18T08:10:51.774Z,11.35
2023-12-18T08:13:18.341Z,12.38
2023-12-18T08:15:44.926Z,12.15
2023-12-18T08:18:13.307Z,13.13
2023-12-18T08:20:40.207Z,12.27
2023-12-18T08:23:06.725Z,11.82
2023-12-18T08:25:33.241Z,13.65
2023-12-18T08:27:59.986Z,13.73
2023-12-18T08:30:26.638Z,12.30
2023-12-18T08:32:53.286Z,13.23
2023-12-18T08:35:19.791Z,11.93
2023-12-18T08:37:46.248Z,12.65
2023-12-18T08:40:12.997Z,13.32
2023-12-18T08:42:39.576Z,12.55
2023-12-18T08:45:06.569Z,13.63
2023-12-18T08:47:33.699Z,13.15
2023-12-18T08:50:00.332Z,13.77
2023-12-18T08:52:26.826Z,12.98
2023-12-18T08:54:53.296Z,12.07
2023-12-18T08:57:19.978Z,13.50
2023-12-18T08:59:46.561Z,13.60
2023-12-18T09:02:13.104Z,13.32
2023-12-18T09:04:39.702Z,14.32
2023-12-18T09:07:06.375Z,12.52
2023-12-18T09:09:32.966Z,12.95
2023-12-18T09:11:59.516Z,13.30
2023-12-18T09:14:26.076Z,13.88
2023-12-18T09:16:52.543Z,17.60
2023-12-18T09:19:19.662Z,16.58
2023-12-18T09:21:46.197Z,15.93
2023-12-18T09:24:12.778Z,16.25
2023-12-18T09:26:39.318Z,14.23
2023-12-18T09:29:05.963Z,14.35
2023-12-18T09:31:32.727Z,13.10
2023-12-18T09:33:59.654Z,14.73
2023-12-18T09:36:26.353Z,15.90
2023-12-18T09:38:52.889Z,15.07
2023-12-18T09:41:26.164Z,14.85
2023-12-18T09:43:55.970Z,17.30
2023-12-18T09:46:23.929Z,16.73
2023-12-18T09:48:54.700Z,16.65
2023-12-18T09:51:23.494Z,17.50
2023-12-18T09:53:53.063Z,18.02
2023-12-18T09:56:23.537Z,16.67
2023-12-18T09:58:50.545Z,16.40
2023-12-18T10:01:17.507Z,16.55
2023-12-18T10:03:44.343Z,17.75
2023-12-18T10:06:11.053Z,18.50
2023-12-18T10:08:38.349Z,17.77
2023-12-18T10:11:05.071Z,17.30
2023-12-18T10:13:31.674Z,18.42
2023-12-18T10:16:00.288Z,17.33
2023-12-18T10:18:27.334Z,17.45
2023-12-18T10:20:54.043Z,16.65
2023-12-18T10:23:20.556Z,15.60
2023-12-18T10:25:48.056Z,16.27
2023-12-18T10:28:14.582Z,15.52
2023-12-18T10:30:41.249Z,17.67
2023-12-18T10:33:11.682Z,17.23
2023-12-18T10:35:39.340Z,16.50
2023-12-18T10:38:06.184Z,15.57
2023-12-18T10:40:32.925Z,15.27
2023-12-18T10:43:38.767Z,14.57
2023-12-18T10:46:06.175Z,15.35
2023-12-18T10:48:33.785Z,13.75
2023-12-18T10:51:02.319Z,13.77
2023-12-18T10:53:30.397Z,13.45
2023-12-18T10:55:59.373Z,13.48
2023-12-18T10:58:25.904Z,13.68
2023-12-18T11:00:54.221Z,12.95
2023-12-18T11:03:27.944Z,14.05
2023-12-18T11:05:57.772Z,13.98
2023-12-18T11:08:25.428Z,12.35
2023-12-18T11:10:54.550Z,11.85
2023-12-18T11:13:28.350Z,10.20
2023-12-18T11:16:23.995Z,9.73
2023-12-18T11:19:16.198Z,9.48
2023-12-18T11:21:50.465Z,9.70
2023-12-18T11:24:18.366Z,9.88
2023-12-18T11:26:46.914Z,9.68
2023-12-18T11:29:49.482Z,9.07
2023-12-18T11:32:48.087Z,10.85
2023-12-18T11:35:16.369Z,9.65
2023-12-18T11:37:52.358Z,10.23
2023-12-18T11:40:35.430Z,8.80
2023-12-18T11:43:02.915Z,10.88
2023-12-18T11:45:29.717Z,8.77
2023-12-18T11:47:58.271Z,10.05
2023-12-18T11:50:25.865Z,9.82
2023-12-18T11:52:59.388Z,10.90
2023-12-18T11:55:38.146Z,10.23
2023-12-18T11:58:05.511Z,10.45
2023-12-18T12:00:32.704Z,11.00
2023-12-18T12:02:59.746Z,10.73
2023-12-18T12:05:26.846Z,9.77
2023-12-18T12:07:54.142Z,9.90
2023-12-18T12:10:23.537Z,11.00
2023-12-18T12:12:57.520Z,10.05
2023-12-18T12:15:28.356Z,10.65
2023-12-18T12:18:07.726Z,10.35
2023-12-18T12:20:34.823Z,10.77
2023-12-18T12:23:01.332Z,10.45
2023-12-18T12:25:28.030Z,9.80
2023-12-18T12:27:54.691Z,10.23
2023-12-18T12:30:22.949Z,10.38
2023-12-18T12:32:49.707Z,9.80
2023-12-18T12:35:18.258Z,9.60
2023-12-18T12:37:46.589Z,10.00
2023-12-18T12:40:13.153Z,10.35
2023-12-18T12:42:41.467Z,9.98
2023-12-18T12:45:10.372Z,11.38
2023-12-18T12:47:38.626Z,10.25
2023-12-18T12:50:07.025Z,10.07
2023-12-18T12:52:38.254Z,11.00
2023-12-18T12:55:08.268Z,9.82
2023-12-18T12:57:34.909Z,9.40
2023-12-18T13:00:01.585Z,9.60
2023-12-18T13:02:29.019Z,10.02
2023-12-18T13:04:55.626Z,9.55
2023-12-18T13:07:23.828Z,9.35
2023-12-18T13:09:51.988Z,9.05
2023-12-18T13:12:18.836Z,8.77
2023-12-18T13:14:46.541Z,9.82
2023-12-18T13:17:13.793Z,9.88
2023-12-18T13:19:40.860Z,10.05
2023-12-18T13:22:07.603Z,10.10
2023-12-18T13:24:34.803Z,10.20
2023-12-18T13:27:01.983Z,10.98
2023-12-18T13:29:34.669Z,10.02
2023-12-18T13:32:02.449Z,9.77
2023-12-18T13:34:29.773Z,10.25
2023-12-18T13:36:57.372Z,10.35
2023-12-18T13:39:24.462Z,10.82
2023-12-18T13:41:56.489Z,10.55
2023-12-18T13:44:24.230Z,10.23
2023-12-18T13:46:51.649Z,10.68
2023-12-18T13:49:19.072Z,11.88
2023-12-18T13:51:46.098Z,11.52
2023-12-18T13:54:12.991Z,10.65
2023-12-18T13:56:39.776Z,11.02
2023-12-18T13:59:06.883Z,11.82
2023-12-18T14:01:33.816Z,11.77
2023-12-18T14:04:00.588Z,10.70
2023-12-18T14:06:27.534Z,10.30
2023-12-18T14:08:54.163Z,11.75
2023-12-18T14:11:20.794Z,11.93
2023-12-18T14:13:48.041Z,12.93
2023-12-18T14:16:14.687Z,12.70
2023-12-18T14:18:42.033Z,14.68
2023-12-18T14:21:08.758Z,14.35
2023-12-18T14:23:35.315Z,13.90
2023-12-18T14:26:02.049Z,14.25
2023-12-18T14:28:28.640Z,14.60
2023-12-18T14:30:55.337Z,14.35
2023-12-18T14:33:22.077Z,14.55
2023-12-18T14:35:50.471Z,13.98
2023-12-18T14:38:18.720Z,15.25
2023-12-18T14:40:46.582Z,14.43
2023-12-18T14:43:13.584Z,14.85
2023-12-18T14:45:40.358Z,13.93
2023-12-18T14:48:07.271Z,13.40
2023-12-18T14:50:34.912Z,13.10
2023-12-18T14:53:03.241Z,13.10
2023-12-18T14:55:31.702Z,12.88
2023-12-18T14:58:06.275Z,13.52
2023-12-18T15:00:33.947Z,13.43
2023-12-18T15:03:02.178Z,15.52
2023-12-18T15:05:28.793Z,15.02
2023-12-18T15:07:57.516Z,14.55
2023-12-18T15:10:25.210Z,14.35
2023-12-18T15:12:51.753Z,15.60
2023-12-18T15:15:18.348Z,14.98
2023-12-18T15:17:44.998Z,14.85
2023-12-18T15:20:12.052Z,15.55
2023-12-18T15:22:38.738Z,15.05
2023-12-18T15:25:05.953Z,14.70
2023-12-18T15:27:33.166Z,16.77
2023-12-18T15:29:59.942Z,16.40
2023-12-18T15:32:26.539Z,15.50
2023-12-18T15:34:53.752Z,15.90
2023-12-18T15:37:20.512Z,15.90
2023-12-18T15:39:47.206Z,15.70
2023-12-18T15:42:13.977Z,16.60
2023-12-18T15:44:40.857Z,15.05
2023-12-18T15:47:08.689Z,15.80
2023-12-18T15:49:35.425Z,14.20
2023-12-18T15:52:02.352Z,15.35
2023-12-18T15:54:28.966Z,14.13
2023-12-18T15:56:55.972Z,15.80
2023-12-18T15:59:23.009Z,16.00
2023-12-18T16:01:49.733Z,14.82
2023-12-18T16:04:16.373Z,17.67
2023-12-18T16:06:43.433Z,16.20
2023-12-18T16:09:13.628Z,16.40
2023-12-18T16:11:40.951Z,17.83
2023-12-18T16:14:07.806Z,17.95
2023-12-18T16:16:34.423Z,17.23
2023-12-18T16:19:01.119Z,16.40
2023-12-18T16:21:29.484Z,16.23
2023-12-18T16:23:56.188Z,17.05
2023-12-18T16:26:22.849Z,16.13
2023-12-18T16:28:50.748Z,16.08
2023-12-18T16:31:17.330Z,16.25
2023-12-18T16:33:44.213Z,17.23
2023-12-18T16:36:19.083Z,15.88
2023-12-18T16:38:47.658Z,18.08
2023-12-18T16:41:14.932Z,16.23
2023-12-18T16:43:41.419Z,16.80
2023-12-18T16:46:07.944Z,18.60
2023-12-18T16:48:35.816Z,17.60
2023-12-18T16:51:03.249Z,16.10
2023-12-18T16:53:29.932Z,16.00
2023-12-18T16:55:56.563Z,14.25
2023-12-18T16:58:23.402Z,15.10
2023-12-18T17:00:50.235Z,15.05
2023-12-18T17:03:20.196Z,17.15
2023-12-18T17:05:46.945Z,15.55
2023-12-18T17:08:14.230Z,16.17
2023-12-18T17:10:40.889Z,15.90
2023-12-18T17:13:07.486Z,15.90
2023-12-18T17:15:34.484Z,15.55
2023-12-18T17:18:01.120Z,15.38
2023-12-18T17:20:27.782Z,15.75
2023-12-18T17:22:54.278Z,15.45
2023-12-18T17:25:20.750Z,16.52
2023-12-18T17:27:47.243Z,15.85
2023-12-18T17:30:13.860Z,16.02
2023-12-18T17:32:40.443Z,16.73
2023-12-18T17:35:07.740Z,17.90
2023-12-18T17:37:34.590Z,18.00
2023-12-18T17:40:01.989Z,16.02
2023-12-18T17:42:32.025Z,16.27
2023-12-18T17:45:01.953Z,15.95
2023-12-18T17:47:29.726Z,16.02
2023-12-18T17:49:56.491Z,16.08
2023-12-18T17:52:23.094Z,15.82
2023-12-18T17:54:49.808Z,16.20
2023-12-18T17:57:16.864Z,14.98
2023-12-18T17:59:43.493Z,14.50
2023-12-18T18:02:11.331Z,16.27
2023-12-18T18:04:38.005Z,15.48
2023-12-18T18:07:06.003Z,15.88
2023-12-18T18:09:35.235Z,15.57
2023-12-18T18:12:01.736Z,17.30
2023-12-18T18:14:28.582Z,18.25
2023-12-18T18:16:55.101Z,16.80
2023-12-18T18:19:21.781Z,16.40
2023-12-18T18:21:48.353Z,16.55
2023-12-18T18:24:14.983Z,17.58
2023-12-18T18:26:41.709Z,17.17
2023-12-18T18:29:08.363Z,16.50
2023-12-18T18:31:35.069Z,17.15
2023-12-18T18:34:02.480Z,16.42
2023-12-18T18:36:31.954Z,17.00
2023-12-18T18:38:59.251Z,17.00
2023-12-18T18:41:26.409Z,15.10
2023-12-18T18:43:53.025Z,16.92
2023-12-18T18:46:19.600Z,16.90
2023-12-18T18:48:46.927Z,17.90
2023-12-18T18:51:13.560Z,18.35
2023-12-18T18:53:40.112Z,22.15
2023-12-18T18:56:07.452Z,22.35
2023-12-18T18:58:37.113Z,23.55
2023-12-18T19:01:04.050Z,21.67
2023-12-18T19:03:30.966Z,23.50
2023-12-18T19:05:57.596Z,26.40
2023-12-18T19:08:25.600Z,26.10
2023-12-18T19:10:52.121Z,26.85
2023-12-18T19:13:19.850Z,23.90
2023-12-18T19:15:48.039Z,26.38
2023-12-18T19:18:14.936Z,23.15
2023-12-18T19:20:41.586Z,23.70
2023-12-18T19:23:08.142Z,19.75
2023-12-18T19:25:34.763Z,19.98
2023-12-18T19:28:01.303Z,19.88
2023-12-18T19:30:28.258Z,17.15
2023-12-18T19:32:56.313Z,17.05
2023-12-18T19:35:22.894Z,18.67
2023-12-18T19:37:49.464Z,17.70
2023-12-18T19:40:16.081Z,17.02
2023-12-18T19:42:42.672Z,16.48
2023-12-18T19:45:09.594Z,18.83
2023-12-18T19:47:36.145Z,19.63
2023-12-18T19:50:03.052Z,17.30
2023-12-18T19:52:29.762Z,16.05
2023-12-18T19:54:56.301Z,15.40
2023-12-18T19:57:22.815Z,15.35
2023-12-18T19:59:49.320Z,15.32
2023-12-18T20:02:17.032Z,16.83
2023-12-18T20:04:43.555Z,16.92
2023-12-18T20:07:10.179Z,16.25
2023-12-18T20:09:36.921Z,16.70
2023-12-18T20:12:04.158Z,16.83
2023-12-18T20:14:30.717Z,15.45
2023-12-18T20:16:57.222Z,16.40
2023-12-18T20:19:23.918Z,15.98
2023-12-18T20:21:51.724Z,17.42
2023-12-18T20:24:18.899Z,16.77
2023-12-18T20:26:47.503Z,16.70
2023-12-18T20:29:14.417Z,15.70
2023-12-18T20:31:41.862Z,15.55
2023-12-18T20:34:08.609Z,14.90
2023-12-18T20:36:35.188Z,14.55
2023-12-18T20:39:02.808Z,13.65
2023-12-18T20:41:29.327Z,15.25
2023-12-18T20:43:55.914Z,16.02
2023-12-18T20:46:22.399Z,15.10
2023-12-18T20:48:50.762Z,16.33
2023-12-18T20:51:17.484Z,15.02
2023-12-18T20:53:43.980Z,14.70
2023-12-18T20:56:13.991Z,13.95
2023-12-18T20:58:41.495Z,15.02
2023-12-18T21:01:09.864Z,14.38
2023-12-18T21:03:36.638Z,13.05
2023-12-18T21:06:03.449Z,14.60
2023-12-18T21:08:29.975Z,13.82
2023-12-18T21:10:56.460Z,14.52
2023-12-18T21:13:24.194Z,14.73
2023-12-18T21:15:52.103Z,13.65
2023-12-18T21:18:18.605Z,15.88
2023-12-18T21:20:45.165Z,15.68
2023-12-18T21:23:11.717Z,15.95
2023-12-18T21:25:38.269Z,15.02
2023-12-18T21:28:04.858Z,17.33
2023-12-18T21:30:32.665Z,16.60
2023-12-18T21:32:59.408Z,16.40
2023-12-18T21:35:26.063Z,17.08
2023-12-18T21:37:52.941Z,25.05
2023-12-18T21:40:19.512Z,29.50
2023-12-18T21:42:46.160Z,25.25
2023-12-18T21:45:13.025Z,25.58
2023-12-18T21:47:40.577Z,27.20
2023-12-18T21:50:08.065Z,26.55
2023-12-18T21:52:34.594Z,27.00
2023-12-18T21:55:01.209Z,27.45
2023-12-18T21:57:27.720Z,26.95
2023-12-18T21:59:55.238Z,24.25
2023-12-18T22:02:21.761Z,24.65
2023-12-18T22:04:48.340Z,23.27
2023-12-18T22:07:14.863Z,22.73
2023-12-18T22:09:41.453Z,20.90
2023-12-18T22:12:08.682Z,19.58
2023-12-18T22:14:35.408Z,18.95
2023-12-18T22:17:02.199Z,19.02
2023-12-18T22:19:28.860Z,18.73
2023-12-18T22:21:55.632Z,17.98
2023-12-18T22:24:22.189Z,19.30
2023-12-18T22:26:48.771Z,19.60
2023-12-18T22:29:15.241Z,20.15
2023-12-18T22:31:42.541Z,16.90
2023-12-18T22:34:09.462Z,20.40
2023-12-18T22:36:38.559Z,20.52
2023-12-18T22:39:11.507Z,21.90
2023-12-18T22:41:40.902Z,24.20
2023-12-18T22:44:07.675Z,22.38
2023-12-18T22:46:34.335Z,23.20
2023-12-18T22:49:01.518Z,24.25
2023-12-18T22:51:28.207Z,22.55
2023-12-18T22:53:54.725Z,24.52
2023-12-18T22:56:21.880Z,25.08
2023-12-18T22:58:48.936Z,24.88
2023-12-18T23:01:15.445Z,22.23
2023-12-18T23:03:42.168Z,23.35
2023-12-18T23:06:09.867Z,21.45
2023-12-18T23:08:36.489Z,24.35
2023-12-18T23:11:03.013Z,22.92
2023-12-18T23:13:29.664Z,21.23
2023-12-18T23:15:56.195Z,21.83
2023-12-18T23:18:22.863Z,19.95
2023-12-18T23:20:49.470Z,20.27
2023-12-18T23:23:15.932Z,18.67
2023-12-18T23:25:42.485Z,19.23
2023-12-18T23:28:08.967Z,19.95
2023-12-18T23:30:36.719Z,23.48
2023-12-18T23:33:06.299Z,24.83
2023-12-18T23:35:36.515Z,27.50
2023-12-18T23:38:03.146Z,28.92
2023-12-18T23:40:29.960Z,31.83
2023-12-18T23:42:56.480Z,28.73
2023-12-18T23:45:23.007Z,24.63
2023-12-18T23:47:50.598Z,23.40
2023-12-18T23:50:17.856Z,24.20
2023-12-18T23:52:45.712Z,22.17
2023-12-18T23:55:15.357Z,22.15
2023-12-18T23:57:42.415Z,21.23
